x

Dauphin Island, Al (dpia1) Weather Station

1:00pm - Sat 19th Aug 2017 All times are CDT. -5 hours from GMT.

  • Wind
    2mph, 2mph gusts
  • Air Temp 86°f
  • Sea Pressure 1015.4mb
  • Dauphin Island, Al
  • Dauphin Island, Al

More Historic Weather Station data

Upgrade to MSW Pro to gain access to the past 30 days of data for over 8000 Wavebouys and Weather Stations around the globe.

Join

Comparision Forecast

View Surf forecast
   
Sat 08/19 1:00pm 2 2 mph 1015.4mb 86f
12:00pm 7 8 mph 1015.7mb 85f
11:00am 8 9 mph 1016.2mb 84f
10:00am 9 10 mph 1016mb 83f
9:00am 9 10 mph 1016.2mb 83f
8:00am 11 11 mph 1015.4mb 83f
7:00am 14 14 mph 1014.7mb 82f
6:00am 10 13 mph 1014.8mb 82f
5:00am 14 15 mph 1014.7mb 81f
4:00am 14 15 mph 1014.8mb 81f
3:00am 9 10 mph 1014.4mb 82f
2:00am 5 6 mph 1014.9mb 82f
1:00am 3 5 mph 1015.1mb 82f
12:00am 6 7 mph 1015.6mb 81f
Fri 08/18 11:00pm 7 8 mph 1015.3mb 81f
10:00pm 3 3 mph 1015.2mb 82f
9:00pm 5 5 mph 1015.4mb 82f
8:00pm 11 13 mph 1015.8mb 82f
7:00pm 5 7 mph 1015.6mb 84f
6:00pm 6 7 mph 1015.3mb 83f
5:00pm 10 13 mph 1014.4mb 83f
4:00pm 10 14 mph 1015mb 82f
3:00pm 18 23 mph 1015.7mb 81f
2:00pm 7 9 mph 1016mb 88f
1:00pm 7 9 mph 1016.4mb 87f
12:00pm 2 3 mph 1016.7mb 87f
11:00am 6 7 mph 1017mb 85f
10:00am 10 13 mph 1017mb 85f
9:00am 14 16 mph 1016.9mb 83f
8:00am 15 17 mph 1016.7mb 84f
7:00am 15 16 mph 1016.6mb 84f
6:00am 10 13 mph 1016mb 84f
5:00am 8 10 mph 1015.8mb 85f
4:00am 9 14 mph 1015.7mb 85f
3:00am 9 13 mph 1015.9mb 85f
2:00am 9 13 mph 1016.3mb 86f
1:00am 8 11 mph 1016.5mb 86f
12:00am 9 11 mph 1016.9mb 86f
Thu 08/17 11:00pm 10 14 mph 1017mb 86f
10:00pm 9 13 mph 1016.6mb 87f
9:00pm 9 11 mph 1016.2mb 87f
8:00pm 7 13 mph 1016.1mb 87f
7:00pm 8 10 mph 1016mb 87f
6:00pm 7 10 mph 1016mb 88f
5:00pm 8 11 mph 1016.2mb 88f
4:00pm 7 14 mph 1016.7mb 89f
3:00pm 9 13 mph 1017.2mb 88f
2:00pm 11 14 mph 1018mb 87f
1:00pm 10 13 mph 1018.8mb 87f
12:00pm 9 14 mph 1019.1mb 88f
11:00am 8 10 mph 1019.3mb 85f
10:00am 8 9 mph 1019.2mb 85f
9:00am 8 9 mph 1018.9mb 85f
8:00am 9 10 mph 1018.7mb 85f
7:00am 6 7 mph 1018.4mb 84f
6:00am 7 9 mph 1017.9mb 84f
5:00am 6 7 mph 1017.4mb 84f
4:00am 7 10 mph 1017mb 85f
3:00am 6 8 mph 1017mb 85f
2:00am 6 9 mph 1016.9mb 85f
1:00am 5 7 mph 1017mb 85f
12:00am 8 10 mph 1017.3mb 85f
Wed 08/16 11:00pm 3 6 mph 1017.8mb 85f
10:00pm 2 3 mph 1018.1mb 85f
9:00pm 5 6 mph 1018mb 85f
8:00pm 5 6 mph 1017.5mb 85f
7:00pm 7 10 mph 1017.4mb 86f
6:00pm 8 10 mph 1016.9mb 87f
5:00pm 9 11 mph 1016.7mb 87f
4:00pm 6 9 mph 1016.9mb 87f
3:00pm 6 8 mph 1016.9mb 87f
2:00pm 8 11 mph 1017.5mb 87f
1:00pm 6 8 mph 1018mb 86f
12:00pm 6 8 mph 1018.3mb 86f
11:00am 7 9 mph 1018.6mb 86f
10:00am 8 9 mph 1018.6mb 85f
9:00am 7 9 mph 1018.4mb 85f
8:00am 7 9 mph 1018mb 84f
7:00am 8 10 mph 1017.6mb 82f
6:00am 5 6 mph 1017.4mb 82f
5:00am 7 9 mph 1016.8mb 82f
4:00am 7 10 mph 1016.3mb 83f
3:00am 9 13 mph 1015.8mb 83f
2:00am 11 14 mph 1015.2mb 83f
1:00am 10 13 mph 1015.1mb 83f
12:00am 8 10 mph 1015.7mb 83f
Tue 08/15 11:00pm 7 8 mph 1015.7mb 82f
10:00pm 7 7 mph 1015.7mb 82f
9:00pm 3 3 mph 1015.5mb 82f
8:00pm 3 5 mph 1015.4mb 81f